createdAt,value
2023-04-12T00:01:41.515Z,42.30
2023-04-12T00:04:10.133Z,42.35
2023-04-12T00:06:38.440Z,42.15
2023-04-12T00:09:08.740Z,42.21
2023-04-12T00:11:36.834Z,42.52
2023-04-12T00:14:04.999Z,42.72
2023-04-12T00:16:32.989Z,42.59
2023-04-12T00:19:03.718Z,42.25
2023-04-12T00:21:31.734Z,43.02
2023-04-12T00:24:02.959Z,43.13
2023-04-12T00:26:32.338Z,43.24
2023-04-12T00:29:00.189Z,43.31
2023-04-12T00:31:30.311Z,43.16
2023-04-12T00:34:00.430Z,43.96
2023-04-12T00:36:28.548Z,44.22
2023-04-12T00:38:59.119Z,44.02
2023-04-12T00:41:29.368Z,44.52
2023-04-12T00:43:59.125Z,45.26
2023-04-12T00:46:29.689Z,45.83
2023-04-12T00:48:58.427Z,46.36
2023-04-12T00:51:26.764Z,46.59
2023-04-12T00:53:54.995Z,46.91
2023-04-12T00:56:23.918Z,47.29
2023-04-12T00:58:52.543Z,48.06
2023-04-12T01:01:21.924Z,48.19
2023-04-12T01:03:50.727Z,48.88
2023-04-12T01:06:29.803Z,49.40
2023-04-12T01:09:01.001Z,49.46
2023-04-12T01:11:33.626Z,49.99
2023-04-12T01:14:06.753Z,49.82
2023-04-12T01:16:40.838Z,50.58
2023-04-12T01:19:22.924Z,50.36
2023-04-12T01:21:55.118Z,50.86
2023-04-12T01:24:29.047Z,50.40
2023-04-12T01:27:00.917Z,51.00
2023-04-12T01:29:30.786Z,50.97
2023-04-12T01:32:00.434Z,51.42
2023-04-12T01:34:30.837Z,51.54
2023-04-12T01:36:58.744Z,51.81
2023-04-12T01:39:27.462Z,51.92
2023-04-12T01:41:55.824Z,52.11
2023-04-12T01:44:26.799Z,51.93
2023-04-12T01:47:01.981Z,52.34
2023-04-12T01:49:33.482Z,52.59
2023-04-12T01:52:04.001Z,52.40
2023-04-12T01:54:34.515Z,52.12
2023-04-12T01:57:03.628Z,52.54
2023-04-12T01:59:33.410Z,53.24
2023-04-12T02:02:03.033Z,52.93
2023-04-12T02:04:31.235Z,53.12
2023-04-12T02:06:59.058Z,53.13
2023-04-12T02:09:27.544Z,53.11
2023-04-12T02:11:56.466Z,53.54
2023-04-12T02:14:24.384Z,53.61
2023-04-12T02:16:56.047Z,54.44
2023-04-12T02:19:25.545Z,54.65
2023-04-12T02:21:53.881Z,54.55
2023-04-12T02:24:21.861Z,54.71
2023-04-12T02:26:49.879Z,55.27
2023-04-12T02:29:17.830Z,55.35
2023-04-12T02:31:46.465Z,55.75
2023-04-12T02:34:17.901Z,55.40
2023-04-12T02:36:49.248Z,55.31
2023-04-12T02:39:18.898Z,55.79
2023-04-12T02:41:46.887Z,55.54
2023-04-12T02:44:14.857Z,56.08
2023-04-12T02:46:42.725Z,55.72
2023-04-12T02:49:10.567Z,55.90
2023-04-12T02:51:38.717Z,56.57
2023-04-12T02:54:08.213Z,56.32
2023-04-12T02:56:37.000Z,56.51
2023-04-12T02:59:04.848Z,56.86
2023-04-12T03:01:33.912Z,57.35
2023-04-12T03:04:02.549Z,57.61
2023-04-12T03:06:32.022Z,57.23
2023-04-12T03:09:00.374Z,57.12
2023-04-12T03:11:29.856Z,57.60
2023-04-12T03:13:57.985Z,57.55
2023-04-12T03:16:29.731Z,57.64
2023-04-12T03:18:57.874Z,57.84
2023-04-12T03:21:26.031Z,58.34
2023-04-12T03:23:53.864Z,58.07
2023-04-12T03:26:21.698Z,57.91
2023-04-12T03:28:56.904Z,57.73
2023-04-12T03:31:38.755Z,57.82
2023-04-12T03:34:06.822Z,58.16
2023-04-12T03:36:34.880Z,58.21
2023-04-12T03:39:02.786Z,57.92
2023-04-12T03:41:30.673Z,57.42
2023-04-12T03:43:59.965Z,57.90
2023-04-12T03:46:27.885Z,57.95
2023-04-12T03:48:55.783Z,58.56
2023-04-12T03:51:26.855Z,58.34
2023-04-12T03:53:55.565Z,58.69
2023-04-12T03:56:23.669Z,59.13
2023-04-12T03:58:51.607Z,58.79
2023-04-12T04:01:21.654Z,59.26
2023-04-12T04:03:49.684Z,58.97
2023-04-12T04:06:18.755Z,59.04
2023-04-12T04:08:46.553Z,58.80
2023-04-12T04:11:14.466Z,59.07
2023-04-12T04:13:42.392Z,58.50
2023-04-12T04:16:10.946Z,58.87
2023-04-12T04:18:41.676Z,58.76
2023-04-12T04:21:09.988Z,58.61
2023-04-12T04:23:39.656Z,58.25
2023-04-12T04:26:10.564Z,58.57
2023-04-12T04:28:39.292Z,58.56
2023-04-12T04:31:07.194Z,58.15
2023-04-12T04:33:36.192Z,57.81
2023-04-12T04:36:06.518Z,58.38
2023-04-12T04:38:34.584Z,58.31
2023-04-12T04:41:03.494Z,57.68
2023-04-12T04:43:31.495Z,57.81
2023-04-12T04:45:59.337Z,57.53
2023-04-12T04:48:27.347Z,57.50
2023-04-12T04:50:55.216Z,57.81
2023-04-12T04:53:24.510Z,57.34
2023-04-12T04:55:58.820Z,57.63
2023-04-12T05:05:11.446Z,57.69
2023-04-12T05:08:16.506Z,58.26
2023-04-12T05:11:10.378Z,58.33
2023-04-12T05:14:23.220Z,58.84
2023-04-12T05:17:07.857Z,59.12
2023-04-12T05:23:42.954Z,59.64
2023-04-12T05:27:15.029Z,60.38
2023-04-12T05:37:05.167Z,61.77
2023-04-12T07:16:46.880Z,67.19
2023-04-12T07:52:20.964Z,67.12
2023-04-12T07:54:49.059Z,67.04
2023-04-12T07:57:22.046Z,67.07
2023-04-12T07:59:49.969Z,67.06
2023-04-12T08:02:24.680Z,66.98
2023-04-12T08:04:52.606Z,66.22
2023-04-12T08:07:28.732Z,65.77
2023-04-12T08:09:56.695Z,66.41
2023-04-12T08:12:24.635Z,66.67
2023-04-12T08:14:52.457Z,65.85
2023-04-12T08:17:20.660Z,65.96
2023-04-12T08:19:48.642Z,66.39
2023-04-12T08:22:19.779Z,66.94
2023-04-12T08:24:49.958Z,67.04
2023-04-12T08:27:23.207Z,66.75
2023-04-12T08:29:51.124Z,67.85
2023-04-12T08:32:18.991Z,67.66
2023-04-12T08:34:47.094Z,67.59
2023-04-12T08:37:15.238Z,67.49
2023-04-12T08:39:43.442Z,67.65
2023-04-12T08:42:12.721Z,67.86
2023-04-12T08:44:41.008Z,68.01
2023-04-12T08:47:10.649Z,68.15
2023-04-12T08:49:38.557Z,68.11
2023-04-12T08:52:07.067Z,67.07
2023-04-12T08:54:35.344Z,67.57
2023-04-12T08:57:06.465Z,67.47
2023-04-12T08:59:38.954Z,66.26
2023-04-12T09:02:09.888Z,65.66
2023-04-12T09:04:48.860Z,65.73
2023-04-12T09:07:17.262Z,65.78
2023-04-12T09:09:45.527Z,65.47
2023-04-12T09:12:15.378Z,66.05
2023-04-12T09:14:44.956Z,66.03
2023-04-12T09:17:26.005Z,65.64
2023-04-12T09:19:56.166Z,65.68
2023-04-12T09:22:34.710Z,65.28
2023-04-12T09:25:02.613Z,65.18
2023-04-12T09:27:31.399Z,65.12
2023-04-12T09:30:19.545Z,65.18
2023-04-12T09:32:49.572Z,64.87
2023-04-12T09:35:17.905Z,64.36
2023-04-12T09:37:45.834Z,64.59
2023-04-12T09:40:14.111Z,64.21
2023-04-12T09:42:52.666Z,63.82
2023-04-12T09:45:23.976Z,64.32
2023-04-12T09:47:52.251Z,63.84
2023-04-12T09:50:24.052Z,63.73
2023-04-12T09:52:51.890Z,63.49
2023-04-12T09:55:19.688Z,64.01
2023-04-12T09:57:47.769Z,64.05
2023-04-12T10:00:18.370Z,63.49
2023-04-12T10:02:51.220Z,63.34
2023-04-12T10:05:21.031Z,63.22
2023-04-12T10:07:51.019Z,62.95
2023-04-12T10:10:19.846Z,62.71
2023-04-12T10:12:48.647Z,62.04
2023-04-12T10:15:17.831Z,62.16
2023-04-12T10:17:48.899Z,62.09
2023-04-12T10:20:17.866Z,62.00
2023-04-12T10:22:46.915Z,61.89
2023-04-12T10:25:15.747Z,61.18
2023-04-12T10:27:44.053Z,60.50
2023-04-12T10:30:32.142Z,60.34
2023-04-12T10:33:14.925Z,60.61
2023-04-12T10:36:12.267Z,60.67
2023-04-12T10:38:46.893Z,60.96
2023-04-12T10:41:18.089Z,60.85
2023-04-12T10:43:46.413Z,60.33
2023-04-12T10:46:53.417Z,61.32
2023-04-12T10:49:22.910Z,60.68
2023-04-12T10:52:13.748Z,61.01
2023-04-12T10:54:41.729Z,61.33
2023-04-12T10:57:11.735Z,61.51
2023-04-12T10:59:57.112Z,61.24
2023-04-12T11:02:25.544Z,61.30
2023-04-12T11:05:09.366Z,61.59
2023-04-12T11:07:40.659Z,61.53
2023-04-12T11:10:15.621Z,61.44
2023-04-12T11:12:44.968Z,61.39
2023-04-12T11:15:15.253Z,61.65
2023-04-12T11:17:43.751Z,61.01
2023-04-12T11:20:35.061Z,60.60
2023-04-12T11:23:05.960Z,61.15
2023-04-12T11:28:25.127Z,60.81
2023-04-12T11:38:47.984Z,59.36
2023-04-12T11:41:33.630Z,58.57
2023-04-12T11:48:09.298Z,58.07
2023-04-12T11:50:40.444Z,57.71
2023-04-12T11:53:12.799Z,57.41
2023-04-12T11:55:48.318Z,56.46
2023-04-12T11:58:16.256Z,55.75
2023-04-12T12:01:05.913Z,55.36
2023-04-12T12:03:33.826Z,54.75
2023-04-12T12:06:03.297Z,55.09
2023-04-12T12:08:31.898Z,55.50
2023-04-12T12:11:07.881Z,55.71
2023-04-12T12:13:47.013Z,55.77
2023-04-12T12:16:15.218Z,55.69
2023-04-12T12:18:43.771Z,55.63
2023-04-12T12:21:14.778Z,55.34
2023-04-12T12:23:45.203Z,55.29
2023-04-12T12:26:27.194Z,54.96
2023-04-12T12:28:58.097Z,54.72
2023-04-12T12:31:26.696Z,54.15
2023-04-12T12:33:57.974Z,53.83
2023-04-12T12:36:33.525Z,53.15
2023-04-12T12:39:07.063Z,52.70
2023-04-12T12:41:36.713Z,52.21
2023-04-12T12:44:04.833Z,51.77
2023-04-12T12:46:48.747Z,51.51
2023-04-12T12:49:21.104Z,50.57
2023-04-12T12:51:49.032Z,49.74
2023-04-12T12:54:28.404Z,49.14
2023-04-12T12:57:07.292Z,47.95
2023-04-12T12:59:35.117Z,46.72
2023-04-12T13:02:03.560Z,45.82
2023-04-12T13:04:32.022Z,45.89
2023-04-12T13:07:00.096Z,45.06
2023-04-12T13:09:27.861Z,44.32
2023-04-12T13:14:49.422Z,44.45
2023-04-12T13:17:18.691Z,43.77
2023-04-12T13:19:46.994Z,42.76
2023-04-12T13:22:15.247Z,42.88
2023-04-12T13:24:46.077Z,42.34
2023-04-12T13:27:15.257Z,42.46
2023-04-12T13:29:43.109Z,41.85
2023-04-12T13:32:13.974Z,41.82
2023-04-12T13:34:41.898Z,41.71
2023-04-12T13:37:09.761Z,41.12
2023-04-12T13:39:44.242Z,41.51
2023-04-12T13:42:12.033Z,41.72
2023-04-12T13:44:39.785Z,41.27
2023-04-12T13:47:07.715Z,41.05
2023-04-12T13:49:41.996Z,41.45
2023-04-12T13:52:10.024Z,41.35
2023-04-12T13:54:37.967Z,41.61
2023-04-12T13:57:07.436Z,40.74
2023-04-12T13:59:53.605Z,41.17
2023-04-12T14:02:22.674Z,40.52
2023-04-12T14:04:53.495Z,40.51
2023-04-12T14:07:22.897Z,40.57
2023-04-12T14:09:51.055Z,40.68
2023-04-12T14:12:23.120Z,40.70
2023-04-12T14:17:32.774Z,41.12
2023-04-12T14:20:02.461Z,41.21
2023-04-12T14:22:32.686Z,41.30
2023-04-12T14:25:00.813Z,41.77
2023-04-12T14:27:28.800Z,42.17
2023-04-12T14:29:58.817Z,41.85
2023-04-12T14:32:27.243Z,42.31
2023-04-12T14:34:56.083Z,42.44
2023-04-12T14:37:25.336Z,43.42
2023-04-12T14:39:54.317Z,44.08
2023-04-12T14:42:23.139Z,44.88
2023-04-12T14:44:51.023Z,45.80
2023-04-12T14:55:19.790Z,47.95
2023-04-12T14:57:47.949Z,48.34
2023-04-12T15:00:16.779Z,48.90
2023-04-12T15:02:46.211Z,49.33
2023-04-12T15:05:16.288Z,49.84
2023-04-12T15:07:45.136Z,49.90
2023-04-12T15:10:14.409Z,49.83
2023-04-12T15:12:44.026Z,50.51
2023-04-12T15:15:12.620Z,50.48
2023-04-12T15:20:13.736Z,50.38
2023-04-12T15:22:42.318Z,49.86
2023-04-12T15:25:11.696Z,49.83
2023-04-12T15:27:39.509Z,50.64
2023-04-12T15:30:14.280Z,50.41
2023-04-12T15:32:42.895Z,50.69
2023-04-12T15:37:42.419Z,50.64
2023-04-12T15:40:13.611Z,50.73
2023-04-12T15:42:43.457Z,51.00
2023-04-12T15:45:19.329Z,51.24
2023-04-12T15:47:47.488Z,51.48
2023-04-12T15:50:18.007Z,51.28
2023-04-12T15:52:46.180Z,51.46
2023-04-12T15:55:16.983Z,51.16
2023-04-12T15:57:45.552Z,51.01
2023-04-12T16:00:23.868Z,51.19
2023-04-12T16:02:54.540Z,50.45
2023-04-12T16:05:23.022Z,50.24
2023-04-12T16:07:51.386Z,49.09
2023-04-12T16:10:21.211Z,49.51
2023-04-12T16:12:51.922Z,49.43
2023-04-12T16:15:20.153Z,49.81
2023-04-12T16:17:48.256Z,49.51
2023-04-12T16:20:19.015Z,49.83
2023-04-12T16:22:48.302Z,50.38
2023-04-12T16:25:16.729Z,50.44
2023-04-12T16:27:45.018Z,50.25
2023-04-12T16:30:15.575Z,49.99
2023-04-12T16:32:44.018Z,50.52
2023-04-12T16:35:13.136Z,50.02
2023-04-12T16:37:44.143Z,49.86
2023-04-12T16:40:12.987Z,50.05
2023-04-12T16:42:41.910Z,50.35
2023-04-12T16:45:10.254Z,50.44
2023-04-12T16:47:38.350Z,49.98
2023-04-12T16:50:10.439Z,49.88
2023-04-12T16:52:41.572Z,50.24
2023-04-12T16:55:14.648Z,50.27
2023-04-12T16:57:59.431Z,50.28
2023-04-12T17:02:57.348Z,50.27
2023-04-12T17:05:38.319Z,50.17
2023-04-12T17:08:09.763Z,50.24
2023-04-12T17:10:40.274Z,50.10
2023-04-12T17:13:08.450Z,50.03
2023-04-12T17:15:58.478Z,50.24
2023-04-12T17:18:28.659Z,50.44
2023-04-12T17:21:05.750Z,50.57
2023-04-12T17:23:34.305Z,51.15
2023-04-12T17:26:04.253Z,50.82
2023-04-12T17:28:34.679Z,50.69
2023-04-12T17:31:02.567Z,50.89
2023-04-12T17:33:33.461Z,51.01
2023-04-12T17:36:01.883Z,50.45
2023-04-12T17:38:30.064Z,50.79
2023-04-12T17:41:24.850Z,50.60
2023-04-12T17:43:54.202Z,50.85
2023-04-12T17:46:22.083Z,50.61
2023-04-12T17:48:54.154Z,50.24
2023-04-12T17:51:34.291Z,51.05
2023-04-12T17:54:03.851Z,50.86
2023-04-12T17:56:37.817Z,51.44
2023-04-12T17:59:07.366Z,51.23
2023-04-12T18:01:36.982Z,51.42
2023-04-12T18:04:07.104Z,51.18
2023-04-12T18:06:40.108Z,51.13
2023-04-12T18:09:09.109Z,51.17
2023-04-12T18:11:38.787Z,50.97
2023-04-12T18:14:08.673Z,51.07
2023-04-12T18:16:39.030Z,51.43
2023-04-12T18:19:08.203Z,51.10
2023-04-12T18:21:36.772Z,51.33
2023-04-12T18:24:06.093Z,51.66
2023-04-12T18:26:34.767Z,52.10
2023-04-12T18:29:02.822Z,51.82
2023-04-12T18:31:32.503Z,51.94
2023-04-12T18:34:01.134Z,52.16
2023-04-12T18:36:29.156Z,52.31
2023-04-12T18:38:57.562Z,52.57
2023-04-12T18:41:26.362Z,53.08
2023-04-12T18:44:35.748Z,53.21
2023-04-12T18:47:10.350Z,53.42
2023-04-12T18:49:39.036Z,53.21
2023-04-12T18:52:07.393Z,53.97
2023-04-12T18:54:52.876Z,53.63
2023-04-12T18:57:22.078Z,53.82
2023-04-12T18:59:51.495Z,53.58
2023-04-12T19:06:22.492Z,53.54
2023-04-12T19:08:54.503Z,53.51
2023-04-12T19:12:16.332Z,53.29
2023-04-12T19:14:59.480Z,53.40
2023-04-12T19:17:54.107Z,53.62
2023-04-12T19:20:25.497Z,53.78
2023-04-12T19:27:24.000Z,52.89
2023-04-12T19:29:52.491Z,53.35
2023-04-12T19:32:32.044Z,53.09
2023-04-12T19:34:59.869Z,52.84
